createdAt,value
2022-09-18T00:01:18.531Z,23.35
2022-09-18T00:03:46.853Z,23.80
2022-09-18T00:06:16.987Z,22.27
2022-09-18T00:08:44.103Z,21.27
2022-09-18T00:11:14.130Z,23.05
2022-09-18T00:13:42.358Z,23.27
2022-09-18T00:16:12.037Z,22.58
2022-09-18T00:18:39.540Z,24.63
2022-09-18T00:21:11.547Z,23.10
2022-09-18T00:23:38.939Z,24.85
2022-09-18T00:26:06.381Z,23.08
2022-09-18T00:28:33.637Z,21.33
2022-09-18T00:31:10.203Z,22.70
2022-09-18T00:33:37.707Z,21.88
2022-09-18T00:36:06.514Z,20.80
2022-09-18T00:38:33.505Z,20.45
2022-09-18T00:41:06.072Z,20.00
2022-09-18T00:43:35.381Z,20.17
2022-09-18T00:46:07.570Z,21.77
2022-09-18T00:48:40.436Z,19.20
2022-09-18T00:53:37.002Z,18.75
2022-09-18T00:56:04.944Z,19.10
2022-09-18T00:58:31.981Z,18.95
2022-09-18T01:00:59.782Z,19.25
2022-09-18T01:03:26.536Z,19.17
2022-09-18T01:06:11.487Z,19.42
2022-09-18T01:08:45.646Z,17.90
2022-09-18T01:11:21.720Z,18.77
2022-09-18T01:14:06.368Z,19.00
2022-09-18T01:16:42.011Z,20.80
2022-09-18T01:19:15.669Z,19.30
2022-09-18T01:22:35.569Z,18.33
2022-09-18T01:25:02.403Z,18.45
2022-09-18T01:27:53.911Z,18.35
2022-09-18T01:30:20.762Z,19.02
2022-09-18T01:32:50.308Z,16.42
2022-09-18T01:35:40.980Z,17.80
2022-09-18T01:38:19.112Z,17.55
2022-09-18T01:40:54.179Z,18.58
2022-09-18T01:43:23.648Z,17.52
2022-09-18T01:45:55.246Z,17.45
2022-09-18T01:48:32.155Z,19.15
2022-09-18T01:51:08.933Z,18.55
2022-09-18T01:53:42.804Z,19.45
2022-09-18T01:56:20.020Z,18.73
2022-09-18T01:58:49.313Z,18.92
2022-09-18T02:01:21.379Z,19.17
2022-09-18T02:03:54.649Z,18.75
2022-09-18T02:06:33.678Z,17.52
2022-09-18T02:09:02.076Z,17.77
2022-09-18T02:11:31.922Z,17.88
2022-09-18T02:14:08.877Z,16.45
2022-09-18T02:17:08.704Z,15.60
2022-09-18T02:19:44.079Z,17.38
2022-09-18T02:22:15.103Z,15.95
2022-09-18T02:24:44.982Z,15.65
2022-09-18T02:27:13.659Z,14.45
2022-09-18T02:29:44.389Z,13.55
2022-09-18T02:32:12.519Z,14.23
2022-09-18T02:34:42.448Z,13.93
2022-09-18T02:37:29.474Z,11.65
2022-09-18T02:40:19.731Z,11.20
2022-09-18T02:43:01.743Z,10.88
2022-09-18T02:45:29.392Z,10.77
2022-09-18T02:48:05.278Z,11.27
2022-09-18T02:51:05.831Z,8.90
2022-09-18T02:53:55.194Z,6.55
2022-09-18T02:56:35.728Z,8.63
2022-09-18T02:59:10.866Z,7.72
2022-09-18T03:01:42.502Z,7.53
2022-09-18T03:04:15.104Z,8.43
2022-09-18T03:07:02.115Z,7.25
2022-09-18T03:09:30.102Z,7.88
2022-09-18T03:11:57.364Z,5.97
2022-09-18T03:14:25.448Z,9.15
2022-09-18T03:16:52.225Z,7.10
2022-09-18T03:19:19.301Z,8.10
2022-09-18T03:21:46.298Z,7.68
2022-09-18T03:24:13.132Z,10.02
2022-09-18T03:26:44.568Z,7.85
2022-09-18T03:29:12.804Z,7.72
2022-09-18T03:31:41.656Z,7.60
2022-09-18T03:34:08.641Z,8.48
2022-09-18T03:36:35.614Z,8.95
2022-09-18T03:39:02.577Z,8.50
2022-09-18T03:41:30.095Z,7.03
2022-09-18T03:43:57.384Z,7.40
2022-09-18T03:46:24.697Z,9.50
2022-09-18T03:48:55.376Z,7.88
2022-09-18T03:51:24.082Z,9.00
2022-09-18T03:53:53.624Z,8.73
2022-09-18T03:56:32.144Z,9.32
2022-09-18T03:59:06.486Z,7.22
2022-09-18T04:01:51.936Z,7.32
2022-09-18T04:04:44.743Z,7.07
2022-09-18T04:07:18.331Z,7.25
2022-09-18T04:10:10.225Z,7.13
2022-09-18T04:12:38.557Z,6.65
2022-09-18T04:15:15.539Z,8.02
2022-09-18T04:17:42.705Z,7.50
2022-09-18T04:20:09.874Z,6.72
2022-09-18T04:22:36.984Z,6.43
2022-09-18T04:25:05.076Z,7.93
2022-09-18T04:27:31.744Z,5.82
2022-09-18T04:29:59.125Z,6.88
2022-09-18T04:32:25.967Z,8.00
2022-09-18T04:34:52.859Z,6.88
2022-09-18T04:37:20.730Z,5.80
2022-09-18T04:39:50.900Z,6.35
2022-09-18T04:42:17.693Z,6.53
2022-09-18T04:44:45.767Z,7.60
2022-09-18T04:47:12.629Z,6.63
2022-09-18T04:49:39.394Z,6.72
2022-09-18T04:52:07.260Z,5.82
2022-09-18T04:54:33.996Z,6.40
2022-09-18T04:57:00.763Z,6.30
2022-09-18T04:59:27.418Z,6.18
2022-09-18T05:01:57.021Z,6.18
2022-09-18T05:04:23.834Z,5.95
2022-09-18T05:07:04.988Z,5.97
2022-09-18T05:09:34.508Z,6.55
2022-09-18T05:12:01.557Z,6.03
2022-09-18T05:14:28.370Z,7.57
2022-09-18T05:16:59.503Z,6.10
2022-09-18T05:19:37.996Z,5.72
2022-09-18T05:22:13.509Z,6.78
2022-09-18T05:24:45.009Z,6.45
2022-09-18T05:27:13.397Z,5.43
2022-09-18T05:29:40.254Z,5.80
2022-09-18T05:32:14.329Z,5.97
2022-09-18T05:34:42.948Z,7.10
2022-09-18T05:37:10.675Z,5.85
2022-09-18T05:39:39.464Z,5.95
2022-09-18T05:42:06.442Z,5.63
2022-09-18T05:44:33.166Z,5.53
2022-09-18T05:47:00.374Z,5.28
2022-09-18T05:49:28.024Z,6.22
2022-09-18T05:51:56.221Z,5.30
2022-09-18T05:54:23.105Z,5.35
2022-09-18T05:56:51.057Z,4.88
2022-09-18T05:59:17.902Z,5.80
2022-09-18T06:01:47.644Z,6.00
2022-09-18T06:04:43.422Z,4.82
2022-09-18T06:07:13.047Z,3.38
2022-09-18T06:09:39.876Z,3.38
2022-09-18T06:12:06.934Z,3.85
2022-09-18T06:14:35.375Z,3.80
2022-09-18T06:17:02.972Z,2.83
2022-09-18T06:19:30.107Z,4.18
2022-09-18T06:21:58.490Z,4.07
2022-09-18T06:24:26.025Z,3.20
2022-09-18T06:27:05.856Z,2.90
2022-09-18T06:29:32.794Z,3.75
2022-09-18T06:32:05.685Z,4.00
2022-09-18T06:34:36.663Z,2.97
2022-09-18T06:37:09.850Z,2.22
2022-09-18T06:40:05.320Z,2.92
2022-09-18T06:43:00.146Z,2.55
2022-09-18T06:45:42.945Z,2.55
2022-09-18T06:48:09.744Z,2.33
2022-09-18T06:50:37.969Z,2.30
2022-09-18T06:53:11.485Z,2.35
2022-09-18T06:55:48.963Z,2.13
2022-09-18T06:58:17.315Z,1.88
2022-09-18T07:00:45.522Z,1.65
2022-09-18T07:03:14.151Z,0.00
2022-09-18T07:05:59.727Z,0.00
2022-09-18T07:08:41.801Z,0.00
2022-09-18T07:11:16.213Z,0.00
2022-09-18T07:13:42.976Z,0.00
2022-09-18T07:16:10.067Z,0.00
2022-09-18T07:18:36.822Z,0.00
2022-09-18T07:21:04.366Z,0.00
2022-09-18T07:23:36.304Z,0.00
2022-09-18T07:26:04.576Z,0.03
2022-09-18T07:28:33.839Z,0.00
2022-09-18T07:31:09.768Z,0.00
2022-09-18T07:33:37.294Z,0.00
2022-09-18T07:36:05.729Z,0.00
2022-09-18T07:38:35.671Z,0.22
2022-09-18T07:41:02.927Z,0.00
2022-09-18T07:43:31.941Z,0.00
2022-09-18T07:46:02.857Z,0.00
2022-09-18T07:48:32.903Z,0.00
2022-09-18T07:51:10.190Z,0.00
2022-09-18T07:53:38.484Z,0.00
2022-09-18T07:56:08.911Z,0.47
2022-09-18T07:58:36.745Z,0.00
2022-09-18T08:01:20.238Z,0.00
2022-09-18T08:03:50.297Z,0.00
2022-09-18T08:06:20.508Z,0.00
2022-09-18T08:09:14.551Z,0.00
2022-09-18T08:12:09.916Z,0.00
2022-09-18T08:14:55.617Z,0.00
2022-09-18T08:17:34.858Z,0.00
2022-09-18T08:20:35.420Z,0.00
2022-09-18T08:23:12.954Z,0.00
2022-09-18T08:25:42.215Z,0.00
2022-09-18T08:28:10.257Z,0.00
2022-09-18T08:30:54.993Z,0.00
2022-09-18T08:33:21.948Z,0.00
2022-09-18T08:35:48.961Z,0.00
2022-09-18T08:38:23.517Z,0.00
2022-09-18T08:41:21.654Z,0.00
2022-09-18T08:43:58.105Z,0.00
2022-09-18T08:46:43.539Z,0.00
2022-09-18T08:49:48.974Z,0.00
2022-09-18T08:52:23.010Z,0.00
2022-09-18T08:55:19.627Z,0.00
2022-09-18T08:59:10.611Z,0.00
2022-09-18T09:01:55.775Z,0.00
2022-09-18T09:04:28.590Z,0.00
2022-09-18T09:07:20.117Z,0.00
2022-09-18T09:10:07.919Z,0.10
2022-09-18T09:12:57.586Z,0.00
2022-09-18T09:15:46.988Z,0.00
2022-09-18T09:18:39.808Z,0.00
2022-09-18T09:21:32.556Z,0.00
2022-09-18T09:24:41.505Z,0.00
2022-09-18T09:27:53.821Z,0.00
2022-09-18T09:30:59.707Z,0.00
2022-09-18T09:34:07.056Z,0.00
2022-09-18T09:36:52.145Z,0.00
2022-09-18T09:39:44.950Z,0.00
2022-09-18T09:42:27.094Z,0.00
2022-09-18T09:44:56.879Z,0.00
2022-09-18T09:47:55.428Z,0.00
2022-09-18T09:50:40.982Z,0.00
2022-09-18T09:53:12.131Z,0.13
2022-09-18T10:59:35.173Z,0.00
2022-09-18T11:02:06.382Z,0.00
2022-09-18T11:04:35.797Z,0.00
2022-09-18T11:07:07.494Z,0.05
2022-09-18T11:09:40.205Z,0.00
2022-09-18T11:12:23.919Z,0.05
2022-09-18T11:15:04.284Z,0.00
2022-09-18T11:17:35.288Z,0.00
2022-09-18T11:20:06.365Z,0.00
2022-09-18T11:22:44.686Z,0.00
2022-09-18T11:25:31.255Z,0.00
2022-09-18T11:28:29.915Z,0.00
2022-09-18T11:31:11.910Z,0.32
2022-09-18T11:33:41.879Z,0.03
2022-09-18T11:36:11.529Z,0.00
2022-09-18T11:38:41.672Z,0.35
2022-09-18T11:41:10.133Z,0.22
2022-09-18T11:43:43.723Z,0.57
2022-09-18T11:46:28.788Z,0.10
2022-09-18T11:49:07.115Z,0.52
2022-09-18T11:51:46.902Z,0.00
2022-09-18T11:54:26.310Z,0.05
2022-09-18T11:56:58.705Z,0.32
2022-09-18T11:59:42.578Z,0.00
2022-09-18T12:02:34.468Z,0.10
2022-09-18T12:05:22.781Z,0.00
2022-09-18T12:08:17.145Z,0.00
2022-09-18T12:11:12.695Z,0.00
2022-09-18T12:13:55.426Z,0.00
2022-09-18T12:16:31.330Z,0.00
2022-09-18T12:19:14.242Z,0.00
2022-09-18T12:24:17.605Z,0.20
2022-09-18T12:26:52.640Z,0.00
2022-09-18T12:32:19.861Z,0.10
2022-09-18T12:34:47.346Z,2.28
2022-09-18T12:37:21.509Z,5.60
2022-09-18T12:40:13.383Z,5.05
2022-09-18T12:43:17.799Z,4.60
2022-09-18T12:45:44.581Z,4.97
2022-09-18T12:48:24.484Z,5.60
2022-09-18T12:51:01.368Z,5.32
2022-09-18T12:53:54.002Z,6.40
2022-09-18T12:56:44.726Z,5.22
2022-09-18T12:59:20.073Z,5.93
2022-09-18T13:01:52.090Z,5.97
2022-09-18T13:04:47.587Z,7.20
2022-09-18T13:07:20.463Z,6.68
2022-09-18T13:09:51.682Z,6.97
2022-09-18T13:12:46.350Z,8.43
2022-09-18T13:15:22.002Z,8.48
2022-09-18T13:17:54.294Z,8.65
2022-09-18T13:20:31.303Z,8.95
2022-09-18T13:23:00.608Z,8.30
2022-09-18T13:25:36.608Z,8.23
2022-09-18T13:28:10.754Z,8.63
2022-09-18T13:30:37.956Z,8.38
2022-09-18T13:33:04.994Z,7.25
2022-09-18T13:35:35.050Z,3.97
2022-09-18T13:38:16.134Z,2.25
2022-09-18T13:40:47.245Z,0.80
2022-09-18T13:43:20.530Z,0.50
2022-09-18T13:45:47.650Z,0.60
2022-09-18T13:48:35.927Z,0.75
2022-09-18T13:51:05.801Z,0.40
2022-09-18T13:53:44.246Z,1.00
2022-09-18T13:56:13.104Z,0.52
2022-09-18T13:58:54.440Z,0.88
2022-09-18T14:01:40.061Z,0.77
2022-09-18T14:04:43.637Z,1.25
2022-09-18T14:07:19.726Z,1.30
2022-09-18T14:09:49.368Z,1.05
2022-09-18T14:12:17.934Z,1.70
2022-09-18T14:15:16.496Z,1.70
2022-09-18T14:18:14.617Z,1.70
2022-09-18T14:20:49.085Z,0.93
2022-09-18T14:23:36.993Z,1.10
2022-09-18T14:26:39.510Z,1.17
2022-09-18T14:29:10.145Z,0.87
2022-09-18T14:31:57.944Z,1.10
2022-09-18T14:34:43.624Z,1.35
2022-09-18T14:37:33.026Z,2.00
2022-09-18T14:40:00.733Z,2.08
2022-09-18T14:42:38.977Z,1.60
2022-09-18T14:45:12.430Z,1.75
2022-09-18T14:47:41.106Z,1.45
2022-09-18T14:50:37.759Z,0.82
2022-09-18T14:53:24.415Z,1.48
2022-09-18T14:56:24.976Z,1.70
2022-09-18T14:58:52.647Z,1.60
2022-09-18T15:01:31.363Z,1.30
2022-09-18T15:04:01.069Z,1.20
2022-09-18T15:06:49.935Z,1.35
2022-09-18T15:09:24.161Z,1.15
2022-09-18T15:12:02.236Z,1.30
2022-09-18T15:14:42.723Z,1.23
2022-09-18T15:17:40.209Z,1.10
2022-09-18T15:20:15.618Z,1.20
2022-09-18T15:22:42.642Z,1.00
2022-09-18T15:25:14.013Z,0.88
2022-09-18T15:27:41.874Z,0.98
2022-09-18T15:30:20.048Z,1.33
2022-09-18T15:32:58.040Z,1.23
2022-09-18T15:35:28.661Z,0.65
2022-09-18T15:38:03.477Z,0.75
2022-09-18T15:40:36.655Z,1.15
2022-09-18T15:43:06.110Z,1.00
2022-09-18T15:45:35.491Z,0.77
2022-09-18T15:48:33.990Z,0.60
2022-09-18T15:51:22.952Z,0.75
2022-09-18T15:54:09.216Z,0.88
2022-09-18T15:56:39.567Z,0.50
2022-09-18T15:59:22.016Z,1.08
2022-09-18T16:01:49.001Z,0.80
2022-09-18T16:04:17.363Z,0.70
2022-09-18T16:07:21.481Z,1.27
2022-09-18T16:09:49.427Z,0.98
2022-09-18T16:12:31.192Z,1.10
2022-09-18T16:15:25.523Z,0.60
2022-09-18T16:17:54.510Z,0.50
2022-09-18T16:20:30.522Z,0.50
2022-09-18T16:23:05.229Z,0.60
2022-09-18T16:25:36.123Z,0.68
2022-09-18T16:28:13.714Z,0.68
2022-09-18T16:30:40.691Z,0.57
2022-09-18T16:33:19.327Z,0.60
2022-09-18T16:35:47.879Z,0.57
2022-09-18T16:38:14.658Z,0.40
2022-09-18T16:40:43.003Z,0.43
2022-09-18T16:43:10.775Z,0.40
2022-09-18T16:45:37.942Z,0.20
2022-09-18T16:48:05.129Z,0.20
2022-09-18T16:50:31.932Z,0.20
2022-09-18T16:53:01.424Z,0.10
2022-09-18T16:55:30.287Z,0.30
2022-09-18T16:57:57.493Z,0.28
2022-09-18T17:00:24.536Z,0.30
2022-09-18T17:02:52.465Z,0.50
2022-09-18T17:05:19.214Z,0.30
2022-09-18T17:07:46.453Z,0.30
2022-09-18T17:10:13.395Z,0.25
2022-09-18T17:12:40.971Z,0.50
2022-09-18T17:15:10.355Z,0.30
2022-09-18T17:17:37.215Z,0.30
2022-09-18T17:20:04.941Z,0.30
2022-09-18T17:22:32.251Z,0.30
2022-09-18T17:24:59.658Z,0.30
2022-09-18T17:27:26.503Z,0.35
2022-09-18T17:29:53.229Z,0.28
2022-09-18T17:32:19.964Z,0.20
2022-09-18T17:34:46.760Z,0.30
2022-09-18T17:37:13.511Z,0.30
2022-09-18T17:39:40.244Z,0.30
2022-09-18T17:42:07.314Z,0.30
2022-09-18T17:44:35.377Z,0.30
2022-09-18T17:47:03.252Z,0.40
2022-09-18T17:49:32.384Z,0.30
2022-09-18T18:04:13.984Z,0.70
2022-09-18T18:06:42.036Z,0.30
2022-09-18T18:09:10.110Z,0.60
2022-09-18T18:11:37.902Z,0.50
2022-09-18T18:14:05.761Z,0.57
2022-09-18T18:16:34.440Z,0.50
2022-09-18T18:19:04.570Z,0.40
2022-09-18T18:21:33.429Z,0.50
2022-09-18T18:24:21.035Z,0.80
2022-09-18T18:26:48.529Z,0.60
2022-09-18T18:29:18.879Z,0.50
2022-09-18T18:31:48.095Z,0.30
2022-09-18T18:34:17.678Z,0.30
2022-09-18T18:36:44.531Z,0.40
2022-09-18T18:39:13.098Z,0.52
2022-09-18T18:41:40.959Z,0.70
2022-09-18T18:44:07.998Z,0.52
2022-09-18T18:46:36.727Z,0.60
2022-09-18T18:49:09.146Z,0.52
2022-09-18T18:51:47.614Z,0.50
2022-09-18T18:54:21.527Z,0.77
2022-09-18T18:56:49.082Z,0.73
2022-09-18T18:59:18.616Z,0.70
2022-09-18T19:01:47.470Z,0.80
2022-09-18T19:04:19.033Z,0.52
2022-09-18T19:06:46.034Z,0.77
2022-09-18T19:09:20.982Z,0.52
2022-09-18T19:11:49.440Z,0.60
2022-09-18T19:14:18.745Z,1.00
2022-09-18T19:16:46.461Z,0.60
2022-09-18T19:19:15.851Z,0.43
2022-09-18T19:21:43.202Z,0.60
2022-09-18T19:24:11.527Z,0.45
2022-09-18T19:26:40.652Z,0.60
2022-09-18T19:29:12.221Z,0.55
2022-09-18T19:31:40.921Z,0.70
2022-09-18T19:34:09.612Z,0.75
2022-09-18T19:36:36.560Z,0.65
2022-09-18T19:39:05.648Z,0.70
2022-09-18T19:41:43.241Z,0.68
2022-09-18T19:44:23.001Z,0.60
2022-09-18T19:46:50.700Z,0.70
2022-09-18T19:49:19.800Z,0.52
2022-09-18T19:51:47.345Z,0.50
2022-09-18T19:54:14.507Z,0.70
2022-09-18T19:56:48.534Z,0.73
2022-09-18T19:59:16.737Z,0.73
2022-09-18T20:01:43.743Z,0.75
2022-09-18T20:04:10.561Z,0.80
2022-09-18T20:06:39.006Z,0.70
2022-09-18T20:09:06.180Z,0.60
2022-09-18T20:11:32.852Z,0.80
2022-09-18T20:13:59.683Z,0.75
2022-09-18T20:16:26.532Z,0.85
2022-09-18T20:18:53.331Z,0.80
2022-09-18T20:21:20.192Z,0.60
2022-09-18T20:23:48.275Z,0.80
2022-09-18T20:26:17.933Z,0.70
2022-09-18T20:28:45.101Z,0.80
2022-09-18T20:31:14.076Z,0.90
2022-09-18T20:33:41.142Z,0.77
2022-09-18T20:36:11.196Z,0.52
2022-09-18T20:38:40.070Z,0.85
2022-09-18T20:41:13.968Z,0.90
2022-09-18T20:43:44.243Z,0.90
2022-09-18T20:46:15.699Z,0.60
2022-09-18T20:48:46.402Z,0.60
2022-09-18T20:51:15.342Z,0.73
2022-09-18T20:53:44.848Z,0.80
2022-09-18T20:56:13.638Z,0.50
2022-09-18T20:58:42.208Z,0.50
2022-09-18T21:01:13.897Z,0.68
2022-09-18T21:03:43.174Z,0.50
2022-09-18T21:06:23.500Z,0.68
2022-09-18T21:08:53.505Z,0.70
2022-09-18T21:11:24.289Z,0.80
2022-09-18T21:14:01.531Z,0.60
2022-09-18T21:16:30.876Z,0.50
2022-09-18T21:19:00.300Z,0.63
2022-09-18T21:21:29.046Z,0.57
2022-09-18T21:24:01.513Z,0.85
2022-09-18T21:26:37.201Z,0.80
2022-09-18T21:29:05.257Z,1.02
2022-09-18T21:31:35.580Z,0.90
2022-09-18T21:34:04.495Z,1.35
2022-09-18T21:36:33.651Z,1.00
2022-09-18T21:39:00.803Z,1.40
2022-09-18T21:41:27.515Z,1.23
2022-09-18T21:43:56.128Z,1.30
2022-09-18T21:46:23.919Z,1.60
2022-09-18T21:48:54.370Z,1.45
2022-09-18T21:51:21.517Z,1.70
2022-09-18T21:53:48.397Z,1.50
2022-09-18T21:56:20.187Z,1.38
2022-09-18T21:58:47.788Z,1.95
2022-09-18T22:01:19.138Z,1.70
2022-09-18T22:03:53.490Z,1.75
2022-09-18T22:06:21.467Z,1.70
2022-09-18T22:08:50.313Z,1.02
2022-09-18T22:11:19.555Z,1.50
2022-09-18T22:13:47.310Z,1.88
2022-09-18T22:16:14.352Z,2.00
2022-09-18T22:18:41.394Z,1.75
2022-09-18T22:21:23.968Z,1.52
2022-09-18T22:24:12.476Z,1.58
2022-09-18T22:26:47.589Z,1.65
2022-09-18T22:29:18.551Z,1.63
2022-09-18T22:31:46.713Z,1.90
2022-09-18T22:34:16.598Z,1.80
2022-09-18T22:36:44.956Z,2.00
2022-09-18T22:39:13.238Z,1.63
2022-09-18T22:41:39.981Z,1.83
2022-09-18T22:44:07.540Z,1.85
2022-09-18T22:46:36.926Z,1.60
2022-09-18T22:49:05.174Z,1.30
2022-09-18T22:51:31.937Z,1.33
2022-09-18T22:54:04.830Z,1.60
2022-09-18T22:56:32.103Z,1.30
2022-09-18T22:59:02.207Z,1.13
2022-09-18T23:01:32.336Z,0.85
2022-09-18T23:04:02.526Z,0.95
2022-09-18T23:06:31.071Z,0.82
2022-09-18T23:09:00.790Z,0.90
2022-09-18T23:11:29.980Z,0.80
2022-09-18T23:14:00.623Z,0.50
2022-09-18T23:16:29.334Z,0.80
2022-09-18T23:18:58.624Z,0.70
2022-09-18T23:21:27.468Z,0.90
2022-09-18T23:23:56.099Z,0.70
2022-09-18T23:26:28.770Z,0.60
2022-09-18T23:28:59.741Z,0.50
2022-09-18T23:31:30.932Z,0.30
2022-09-18T23:34:00.243Z,0.10
2022-09-18T23:36:32.337Z,0.40
2022-09-18T23:39:02.410Z,0.40
2022-09-18T23:41:29.925Z,0.50
2022-09-18T23:43:56.800Z,0.15
2022-09-18T23:46:24.243Z,0.43
2022-09-18T23:48:55.101Z,0.25
2022-09-18T23:51:27.099Z,0.30
2022-09-18T23:53:59.973Z,0.30
2022-09-18T23:59:06.743Z,0.38
